Map

Track Data

SID SEASON NUMBER BASIN SUBBASIN NAME ISO_TIME NATURE LAT LON WMO_WIND WMO_PRES WMO_AGENCY TRACK_TYPE DIST2LAND LANDFALL IFLAG USA_AGENCY USA_ATCF_ID USA_LAT USA_LON USA_RECORD USA_STATUS USA_WIND USA_PRES USA_SSHS USA_R34_NE USA_R34_SE USA_R34_SW USA_R34_NW USA_R50_NE USA_R50_SE USA_R50_SW USA_R50_NW USA_R64_NE USA_R64_SE USA_R64_SW USA_R64_NW USA_POCI USA_ROCI USA_RMW USA_EYE TOKYO_LAT TOKYO_LON TOKYO_GRADE TOKYO_WIND TOKYO_PRES TOKYO_R50_DIR TOKYO_R50_LONG TOKYO_R50_SHORT TOKYO_R30_DIR TOKYO_R30_LONG TOKYO_R30_SHORT TOKYO_LAND CMA_LAT CMA_LON CMA_CAT CMA_WIND CMA_PRES HKO_LAT HKO_LON HKO_CAT HKO_WIND HKO_PRES NEWDELHI_LAT NEWDELHI_LON NEWDELHI_GRADE NEWDELHI_WIND NEWDELHI_PRES NEWDELHI_CI NEWDELHI_DP NEWDELHI_POCI REUNION_LAT REUNION_LON REUNION_TYPE REUNION_WIND REUNION_PRES REUNION_TNUM REUNION_CI REUNION_RMW REUNION_R34_NE REUNION_R34_SE REUNION_R34_SW REUNION_R34_NW REUNION_R50_NE REUNION_R50_SE REUNION_R50_SW REUNION_R50_NW REUNION_R64_NE REUNION_R64_SE REUNION_R64_SW REUNION_R64_NW BOM_LAT BOM_LON BOM_TYPE BOM_WIND BOM_PRES BOM_TNUM BOM_CI BOM_RMW BOM_R34_NE BOM_R34_SE BOM_R34_SW BOM_R34_NW BOM_R50_NE BOM_R50_SE BOM_R50_SW BOM_R50_NW BOM_R64_NE BOM_R64_SE BOM_R64_SW BOM_R64_NW BOM_ROCI BOM_POCI BOM_EYE BOM_POS_METHOD BOM_PRES_METHOD NADI_LAT NADI_LON NADI_CAT NADI_WIND NADI_PRES WELLINGTON_LAT WELLINGTON_LON WELLINGTON_WIND WELLINGTON_PRES DS824_LAT DS824_LON DS824_STAGE DS824_WIND DS824_PRES TD9636_LAT TD9636_LON TD9636_STAGE TD9636_WIND TD9636_PRES TD9635_LAT TD9635_LON TD9635_WIND TD9635_PRES TD9635_ROCI NEUMANN_LAT NEUMANN_LON NEUMANN_CLASS NEUMANN_WIND NEUMANN_PRES MLC_LAT MLC_LON MLC_CLASS MLC_WIND MLC_PRES USA_GUST BOM_GUST BOM_GUST_PER REUNION_GUST REUNION_GUST_PER USA_SEAHGT USA_SEARAD_NE USA_SEARAD_SE USA_SEARAD_SW USA_SEARAD_NW STORM_SPEED STORM_DIR
1869345S18073 1870 25 SI MM NOT_NAMED 1869-12-11 06:00:00 NR -17.5000 73.1000 reunion main 1639 1636 _____O________ -1 -17.5000 73.1000 99 9.90000 3 155
1869345S18073 1870 25 SI MM NOT_NAMED 1869-12-11 09:00:00 NR -17.6296 73.1533 main 1646 1641 _____P________ -1 -17.6296 73.1533 99 3 158
1869345S18073 1870 25 SI MM NOT_NAMED 1869-12-11 12:00:00 NR -17.7623 73.2100 main 1641 1641 _____P________ -1 -17.7623 73.2100 99 3 158
1869345S18073 1870 25 SI MM NOT_NAMED 1869-12-11 15:00:00 NR -17.9013 73.2731 main 1649 1647 _____P________ -1 -17.9013 73.2731 99 3 155
1869345S18073 1870 25 SI MM NOT_NAMED 1869-12-11 18:00:00 NR -18.0496 73.3459 main 1647 1647 _____P________ -1 -18.0496 73.3459 99 3 154
1869345S18073 1870 25 SI MM NOT_NAMED 1869-12-11 21:00:00 NR -18.2106 73.4317 main 1653 1653 _____P________ -1 -18.2106 73.4317 99 4 152
1869345S18073 1870 25 SI MM NOT_NAMED 1869-12-12 00:00:00 NR -18.3872 73.5338 main 1660 1660 _____P________ -1 -18.3872 73.5338 99 4 150
1869345S18073 1870 25 SI MM NOT_NAMED 1869-12-12 03:00:00 NR -18.5827 73.6554 main 1677 1675 _____P________ -1 -18.5827 73.6554 99 5 148
1869345S18073 1870 25 SI MM NOT_NAMED 1869-12-12 06:00:00 NR -18.8000 73.8000 reunion main 1684 1682 _____O________ -1 -18.8000 73.8000 99 9.90000 5 147
1869345S18073 1870 25 SI MM NOT_NAMED 1869-12-12 09:00:00 NR -19.0412 73.9697 main 1701 1700 _____P________ -1 -19.0412 73.9697 99 6 146
1869345S18073 1870 25 SI MM NOT_NAMED 1869-12-12 12:00:00 NR -19.3034 74.1623 main 1718 1717 _____P________ -1 -19.3034 74.1623 99 7 145
1869345S18073 1870 25 SI MM NOT_NAMED 1869-12-12 15:00:00 NR -19.5828 74.3742 main 1735 1734 _____P________ -1 -19.5828 74.3742 99 7 144
1869345S18073 1870 25 SI MM NOT_NAMED 1869-12-12 18:00:00 NR -19.8754 74.6020 main 1753 1753 _____P________ -1 -19.8754 74.6020 99 7 143
1869345S18073 1870 25 SI MM NOT_NAMED 1869-12-12 21:00:00 NR -20.1773 74.8420 main 1772 1772 _____P________ -1 -20.1773 74.8420 99 8 143
1869345S18073 1870 25 SI MM NOT_NAMED 1869-12-13 00:00:00 NR -20.4846 75.0908 main 1802 1801 _____P________ -1 -20.4846 75.0908 99 8 143
1869345S18073 1870 25 SI MM NOT_NAMED 1869-12-13 03:00:00 NR -20.7935 75.3447 main 1821 1821 _____P________ -1 -20.7935 75.3447 99 8 142
1869345S18073 1870 25 SI MM NOT_NAMED 1869-12-13 06:00:00 NR -21.1000 75.6000 reunion main 1852 1852 _____O________ -1 -21.1000 75.6000 99 9.90000 7 143
1869345S18073 1870 25 SI MM NOT_NAMED 1869-12-13 09:00:00 NR -21.3495 75.7897 main 1873 1873 _____P________ -1 -21.3495 75.7897 99 6 145
1869345S18073 1870 25 SI MM NOT_NAMED 1869-12-13 12:00:00 NR -21.5945 75.9769 main 1894 1894 _____P________ -1 -21.5945 75.9769 99 6 144
1869345S18073 1870 25 SI MM NOT_NAMED 1869-12-13 15:00:00 NR -21.8427 76.1713 main 1915 1915 _____P________ -1 -21.8427 76.1713 99 6 143
1869345S18073 1870 25 SI MM NOT_NAMED 1869-12-13 18:00:00 NR -22.1018 76.3826 main 1937 1937 _____P________ -1 -22.1018 76.3826 99 7 142
1869345S18073 1870 25 SI MM NOT_NAMED 1869-12-13 21:00:00 NR -22.3795 76.6208 main 1959 1959 _____P________ -1 -22.3795 76.6208 99 8 141
1869345S18073 1870 25 SI MM NOT_NAMED 1869-12-14 00:00:00 NR -22.6834 76.8962 main 1992 1992 _____P________ -1 -22.6834 76.8962 99 8 139
1869345S18073 1870 25 SI MM NOT_NAMED 1869-12-14 03:00:00 NR -23.0211 77.2190 main 2025 2025 _____P________ -1 -23.0211 77.2190 99 10 138
1869345S18073 1870 25 SI MM NOT_NAMED 1869-12-14 06:00:00 NR -23.4000 77.6000 reunion main 2070 2070 _____O________ -1 -23.4000 77.6000 99 9.90000 12 137
1869345S18073 1870 25 SI MM NOT_NAMED 1869-12-14 09:00:00 NR -23.9103 78.1332 main 2127 2127 _____P________ -1 -23.9103 78.1332 99 15 136
1869345S18073 1870 25 SI MM NOT_NAMED 1869-12-14 12:00:00 NR -24.4690 78.7369 main 2196 2196 _____P________ -1 -24.4690 78.7369 99 16 135
1869345S18073 1870 25 SI MM NOT_NAMED 1869-12-14 15:00:00 NR -25.0537 79.3884 main 2276 2276 _____P________ -1 -25.0537 79.3884 99 17 134
1869345S18073 1870 25 SI MM NOT_NAMED 1869-12-14 18:00:00 NR -25.6420 80.0639 main 2354 2354 _____P________ -1 -25.6420 80.0639 99 17 134
1869345S18073 1870 25 SI MM NOT_NAMED 1869-12-14 21:00:00 NR -26.2121 80.7388 main 2425 2425 _____P________ -1 -26.2121 80.7388 99 16 133
1869345S18073 1870 25 SI MM NOT_NAMED 1869-12-15 00:00:00 NR -26.7423 81.3876 main 2504 2504 _____P________ -1 -26.7423 81.3876 99 15 132
1869345S18073 1870 25 SI MM NOT_NAMED 1869-12-15 03:00:00 NR -27.2117 81.9837 main 2574 2574 _____P________ -1 -27.2117 81.9837 99 13 131
1869345S18073 1870 25 SI MM NOT_NAMED 1869-12-15 06:00:00 NR -27.6000 82.5000 main 2603 2586 _____O________ -1 -27.6000 82.5000 99 9.90000 11 129
1869345S18073 1870 25 SI MM NOT_NAMED 1869-12-15 09:00:00 NR -27.8926 82.9155 main 2586 2575 _____P________ -1 -27.8926 82.9155 99 8 127
1869345S18073 1870 25 SI MM NOT_NAMED 1869-12-15 12:00:00 NR -28.0975 83.2358 main 2575 2569 _____P________ -1 -28.0975 83.2358 99 6 124
1869345S18073 1870 25 SI MM NOT_NAMED 1869-12-15 15:00:00 NR -28.2277 83.4737 main 2576 2565 _____P________ -1 -28.2277 83.4737 99 4 119
1869345S18073 1870 25 SI MM NOT_NAMED 1869-12-15 18:00:00 NR -28.2960 83.6425 main 2569 2569 _____P________ -1 -28.2960 83.6425 99 3 109
1869345S18073 1870 25 SI MM NOT_NAMED 1869-12-15 21:00:00 NR -28.3151 83.7557 main 2577 2577 _____P________ -1 -28.3151 83.7557 99 2 90
1869345S18073 1870 25 SI MM NOT_NAMED 1869-12-16 00:00:00 NR -28.2972 83.8270 main 2577 2577 _____P________ -1 -28.2972 83.8270 99 1 59
1869345S18073 1870 25 SI MM NOT_NAMED 1869-12-16 03:00:00 NR -28.2548 83.8705 main 2580 2580 _____P________ -1 -28.2548 83.8705 99 1 35
1869345S18073 1870 25 SI MM NOT_NAMED 1869-12-16 06:00:00 NR -28.2000 83.9000 main 2591 _____O________ -1 -28.2000 83.9000 99 9.90000 1 12

About IBTrACS Database

This database is a web-friendly format of International Best Track Archive for Climate Stewardship (IBTrACS), a global best track data archive curated by NOAA dating back to 1842.

Updated: 2021-11-26